Time;durP1;ratioP1;P1;durP2;ratioP2;P2;SDS_P1;SDS_P2;PMS_P1;PMS_P2;Temp;Humidity;BMP_temperature;BMP_pressure;BME280_temperature;BME280_humidity;BME280_pressure;Samples;Min_cycle;Max_cycle;Signal;HPM_P1;HPM_P2
2022/07/09 00:00:28;;;;;;;7.25;3.22;;;15.30;99.90;;;;;;5112316;28;20241;-51
2022/07/09 00:02:58;;;;;;;4.83;2.90;;;15.30;99.90;;;;;;5100726;28;20227;-50
2022/07/09 00:05:26;;;;;;;7.07;3.30;;;15.30;99.90;;;;;;5100577;28;20288;-51
2022/07/09 00:07:54;;;;;;;5.77;3.00;;;15.30;99.90;;;;;;5115418;28;20256;-50
2022/07/09 00:10:22;;;;;;;4.57;2.90;;;15.20;99.90;;;;;;5117647;28;20759;-50
2022/07/09 00:12:50;;;;;;;5.77;3.20;;;15.20;99.90;;;;;;5115025;28;20302;-50
2022/07/09 00:15:18;;;;;;;6.13;3.53;;;15.20;99.90;;;;;;5091862;28;20212;-50
2022/07/09 00:17:47;;;;;;;6.20;3.33;;;15.10;99.90;;;;;;5093004;28;20771;-51
2022/07/09 00:20:16;;;;;;;6.80;3.40;;;15.10;99.90;;;;;;5092767;28;20304;-51
2022/07/09 00:22:44;;;;;;;6.10;3.40;;;15.00;99.90;;;;;;5093016;28;20236;-51
2022/07/09 00:25:12;;;;;;;6.27;3.60;;;15.00;99.90;;;;;;5092073;28;20200;-50
2022/07/09 00:27:41;;;;;;;3.53;3.13;;;15.00;99.90;;;;;;5092822;28;20216;-50
2022/07/09 00:30:10;;;;;;;5.30;3.07;;;14.90;99.90;;;;;;5078541;28;20259;-51
2022/07/09 00:32:39;;;;;;;5.17;3.43;;;14.90;99.90;;;;;;5092291;28;20273;-51
2022/07/09 00:35:07;;;;;;;4.90;3.10;;;14.90;99.90;;;;;;5092489;28;20711;-51
2022/07/09 00:37:36;;;;;;;4.43;3.30;;;14.80;99.90;;;;;;5093857;28;20257;-50
2022/07/09 00:40:06;;;;;;;5.50;2.97;;;14.80;99.90;;;;;;5093250;28;20208;-50
2022/07/09 00:42:34;;;;;;;6.77;3.57;;;14.80;99.90;;;;;;5092948;28;20293;-51
2022/07/09 00:45:02;;;;;;;3.40;3.07;;;14.70;99.90;;;;;;5083629;28;20205;-51
2022/07/09 00:47:30;;;;;;;5.60;3.10;;;14.60;99.90;;;;;;5072013;28;20205;-51
2022/07/09 00:49:58;;;;;;;5.93;3.43;;;14.60;99.90;;;;;;5089652;28;20208;-51
2022/07/09 00:52:26;;;;;;;4.50;3.60;;;14.60;99.90;;;;;;5092164;28;20224;-51
2022/07/09 00:54:57;;;;;;;4.40;3.07;;;14.50;99.90;;;;;;5091985;28;20209;-51
2022/07/09 00:57:25;;;;;;;3.93;3.30;;;14.50;99.90;;;;;;5091972;28;20595;-50
2022/07/09 00:59:54;;;;;;;4.67;3.40;;;14.50;99.90;;;;;;5091343;28;20270;-51
2022/07/09 01:02:23;;;;;;;5.43;3.40;;;14.50;99.90;;;;;;5080421;28;20275;-51
2022/07/09 01:04:51;;;;;;;6.43;3.30;;;14.50;99.90;;;;;;5089288;28;20912;-51
2022/07/09 01:07:19;;;;;;;6.47;3.33;;;14.40;99.90;;;;;;5092072;28;20257;-50
2022/07/09 01:09:48;;;;;;;4.53;3.10;;;14.40;99.90;;;;;;5091275;28;20353;-51
2022/07/09 01:12:17;;;;;;;6.03;3.60;;;14.40;99.90;;;;;;5091418;28;20790;-51
2022/07/09 01:14:45;;;;;;;4.33;3.40;;;14.40;99.90;;;;;;5091293;28;20734;-51
2022/07/09 01:17:13;;;;;;;5.37;3.97;;;14.30;99.90;;;;;;5092103;28;20212;-50
2022/07/09 01:19:41;;;;;;;4.83;3.60;;;14.30;99.90;;;;;;5077650;28;20221;-51
2022/07/09 01:22:10;;;;;;;4.10;3.40;;;14.20;99.90;;;;;;5090916;28;20220;-51
2022/07/09 01:24:39;;;;;;;6.50;3.50;;;14.20;99.90;;;;;;5091171;28;20208;-50
2022/07/09 01:27:08;;;;;;;3.93;3.23;;;14.20;99.90;;;;;;5091649;28;20559;-51
2022/07/09 01:29:36;;;;;;;5.57;3.43;;;14.20;99.90;;;;;;5091570;28;20204;-51
2022/07/09 01:32:05;;;;;;;5.40;3.83;;;14.10;99.90;;;;;;5090741;28;20224;-51
2022/07/09 01:34:33;;;;;;;6.77;3.77;;;14.10;99.90;;;;;;5091420;28;20204;-50
2022/07/09 01:37:01;;;;;;;5.70;3.70;;;14.10;99.90;;;;;;5091303;28;20277;-50
2022/07/09 01:39:30;;;;;;;7.87;3.93;;;14.10;99.90;;;;;;5091080;28;20228;-51
2022/07/09 01:41:59;;;;;;;4.73;3.63;;;14.10;99.90;;;;;;5091186;28;20231;-51
2022/07/09 01:44:27;;;;;;;6.03;3.87;;;14.10;99.90;;;;;;5090996;28;20212;-51
2022/07/09 01:46:55;;;;;;;6.23;3.70;;;14.10;99.90;;;;;;5091198;28;20357;-50
2022/07/09 01:49:23;;;;;;;4.63;3.60;;;14.10;99.90;;;;;;5090987;28;20211;-51
2022/07/09 01:51:51;;;;;;;8.93;3.97;;;14.00;99.90;;;;;;5091855;28;20246;-50
2022/07/09 01:54:19;;;;;;;6.73;3.73;;;14.00;99.90;;;;;;5076369;28;20238;-51
2022/07/09 01:56:48;;;;;;;5.30;4.20;;;14.10;99.90;;;;;;5091402;28;20258;-51
2022/07/09 01:59:16;;;;;;;4.53;4.00;;;14.10;99.90;;;;;;5090656;28;20258;-51
2022/07/09 02:01:44;;;;;;;6.13;4.07;;;14.20;99.90;;;;;;5090322;28;20257;-50
2022/07/09 02:04:13;;;;;;;5.57;3.80;;;14.20;99.90;;;;;;5090482;28;20208;-51
2022/07/09 02:06:41;;;;;;;4.63;3.70;;;14.10;99.90;;;;;;5090363;28;20208;-50
2022/07/09 02:09:09;;;;;;;4.60;4.13;;;14.10;99.90;;;;;;5090521;28;20289;-50
2022/07/09 02:11:37;;;;;;;4.50;3.57;;;14.10;99.90;;;;;;5090427;28;20329;-51
2022/07/09 02:14:07;;;;;;;3.83;3.33;;;14.10;99.90;;;;;;5090227;28;20273;-51
2022/07/09 02:16:35;;;;;;;4.33;3.93;;;14.10;99.90;;;;;;5090741;28;20200;-51
2022/07/09 02:19:04;;;;;;;4.27;3.80;;;14.10;99.90;;;;;;5090244;28;20235;-51
2022/07/09 02:21:32;;;;;;;6.00;3.70;;;14.10;99.90;;;;;;5090491;28;20208;-50
2022/07/09 02:24:00;;;;;;;5.93;4.10;;;14.10;99.90;;;;;;5089786;28;20236;-50
2022/07/09 02:26:29;;;;;;;4.57;4.10;;;14.10;99.90;;;;;;5090234;28;20204;-50
2022/07/09 02:28:57;;;;;;;4.40;4.00;;;14.10;99.90;;;;;;5090599;28;20669;-50
2022/07/09 02:31:27;;;;;;;4.50;4.03;;;14.10;99.90;;;;;;5089872;28;20250;-51
2022/07/09 02:33:55;;;;;;;4.57;3.47;;;14.00;99.90;;;;;;5090308;28;20680;-50
2022/07/09 02:36:23;;;;;;;6.07;4.17;;;14.00;99.90;;;;;;5090216;28;20633;-51
2022/07/09 02:38:51;;;;;;;5.03;4.20;;;13.90;99.90;;;;;;5089375;28;20742;-50
2022/07/09 02:41:19;;;;;;;4.53;4.13;;;13.90;99.90;;;;;;5092368;28;20250;-51
2022/07/09 02:43:47;;;;;;;6.97;4.17;;;13.90;99.90;;;;;;5109584;28;20704;-51
2022/07/09 02:46:16;;;;;;;6.83;4.63;;;13.80;99.90;;;;;;5110377;28;20204;-50
2022/07/09 02:48:45;;;;;;;4.23;3.83;;;13.80;99.90;;;;;;5110537;28;20212;-51
2022/07/09 02:51:13;;;;;;;6.60;4.10;;;13.80;99.90;;;;;;5109895;28;20248;-51
2022/07/09 02:53:41;;;;;;;5.13;4.27;;;13.80;99.90;;;;;;5085216;28;20247;-51
2022/07/09 02:56:09;;;;;;;4.83;4.20;;;13.80;99.90;;;;;;5088211;28;20258;-51
2022/07/09 02:58:37;;;;;;;4.37;3.97;;;13.70;99.90;;;;;;5089790;28;20262;-51
2022/07/09 03:01:05;;;;;;;5.10;4.30;;;13.70;99.90;;;;;;5089213;28;20221;-50
2022/07/09 03:03:35;;;;;;;5.37;4.30;;;13.70;99.90;;;;;;5089367;28;20266;-51
2022/07/09 03:06:05;;;;;;;5.27;4.47;;;13.60;99.90;;;;;;5089368;28;20856;-51
2022/07/09 03:08:33;;;;;;;5.37;4.27;;;13.60;99.90;;;;;;5088449;28;20618;-50
2022/07/09 03:11:02;;;;;;;7.30;4.23;;;13.60;99.90;;;;;;5089569;28;20204;-49
2022/07/09 03:13:30;;;;;;;4.57;4.17;;;13.60;99.90;;;;;;5088792;28;20293;-51
2022/07/09 03:15:58;;;;;;;9.47;4.60;;;13.60;99.90;;;;;;5089895;28;20208;-50
2022/07/09 03:18:27;;;;;;;5.67;4.20;;;13.60;99.90;;;;;;5089526;28;20277;-50
2022/07/09 03:20:55;;;;;;;5.30;4.60;;;13.60;99.90;;;;;;5089643;28;20224;-50
2022/07/09 03:23:24;;;;;;;6.10;4.50;;;13.60;99.90;;;;;;5089389;28;20228;-50
2022/07/09 03:25:53;;;;;;;4.60;3.97;;;13.70;99.90;;;;;;5089637;28;20209;-49
2022/07/09 03:28:21;;;;;;;6.70;4.10;;;13.60;99.90;;;;;;5089683;28;20227;-50
2022/07/09 03:30:49;;;;;;;7.03;3.97;;;13.60;99.90;;;;;;5089047;28;20212;-50
2022/07/09 03:33:17;;;;;;;5.03;4.40;;;13.70;99.90;;;;;;5088354;28;20236;-51
2022/07/09 03:35:45;;;;;;;4.57;3.87;;;13.70;99.90;;;;;;5088430;28;20630;-50
2022/07/09 03:38:13;;;;;;;5.70;3.90;;;13.70;99.90;;;;;;5090416;28;20212;-51
2022/07/09 03:40:43;;;;;;;5.23;3.93;;;13.80;99.90;;;;;;5090926;28;20297;-50
2022/07/09 03:43:11;;;;;;;6.23;4.17;;;13.90;99.90;;;;;;5090285;28;20232;-51
2022/07/09 03:45:39;;;;;;;4.87;4.17;;;13.80;99.90;;;;;;5089696;28;20200;-50
2022/07/09 03:48:08;;;;;;;5.17;3.80;;;13.80;99.90;;;;;;5089058;28;20745;-50
2022/07/09 03:50:36;;;;;;;4.60;4.13;;;13.80;99.90;;;;;;5089486;28;20623;-50
2022/07/09 03:53:04;;;;;;;5.37;4.10;;;13.80;99.90;;;;;;5082667;28;20255;-50
2022/07/09 03:55:32;;;;;;;5.13;4.23;;;13.90;99.90;;;;;;5077689;28;20242;-50
2022/07/09 03:58:01;;;;;;;5.33;4.53;;;13.80;99.90;;;;;;5087937;28;20208;-51
2022/07/09 04:00:30;;;;;;;4.87;4.07;;;13.90;99.90;;;;;;5087405;28;20642;-50
2022/07/09 04:02:58;;;;;;;5.50;3.80;;;14.00;99.90;;;;;;5087283;28;20227;-51
2022/07/09 04:05:26;;;;;;;7.30;4.37;;;14.00;99.90;;;;;;5088255;28;20208;-50
2022/07/09 04:07:54;;;;;;;4.90;3.70;;;14.10;99.90;;;;;;5088725;28;20696;-50
2022/07/09 04:10:22;;;;;;;4.47;4.00;;;14.20;99.90;;;;;;5088910;28;20258;-50
2022/07/09 04:12:50;;;;;;;4.90;4.00;;;14.30;99.90;;;;;;5088383;28;20650;-50
2022/07/09 04:15:20;;;;;;;5.27;4.00;;;14.50;99.90;;;;;;5086210;28;20208;-51
2022/07/09 04:17:48;;;;;;;5.23;4.10;;;14.60;99.90;;;;;;5088527;28;20212;-51
2022/07/09 04:20:16;;;;;;;4.83;4.10;;;14.90;99.90;;;;;;5087799;28;21019;-51
2022/07/09 04:22:44;;;;;;;5.33;3.97;;;15.10;99.90;;;;;;5089773;28;20299;-50
2022/07/09 04:25:12;;;;;;;4.40;4.00;;;14.90;99.90;;;;;;5092145;28;21007;-51
2022/07/09 04:27:40;;;;;;;4.13;3.80;;;14.80;99.90;;;;;;5093050;28;20204;-50
2022/07/09 04:30:09;;;;;;;4.77;3.97;;;14.70;99.90;;;;;;5091911;28;20201;-50
2022/07/09 04:32:39;;;;;;;4.60;3.80;;;14.70;99.90;;;;;;5092440;28;20270;-50
2022/07/09 04:35:08;;;;;;;4.10;3.70;;;14.70;99.90;;;;;;5092806;28;20204;-50
2022/07/09 04:37:36;;;;;;;4.47;3.93;;;14.70;99.90;;;;;;5092487;28;20246;-50
2022/07/09 04:40:05;;;;;;;4.53;4.13;;;14.70;99.90;;;;;;5091528;28;20672;-49
2022/07/09 04:42:33;;;;;;;5.70;3.80;;;14.70;99.90;;;;;;5091967;28;20224;-50
2022/07/09 04:45:01;;;;;;;6.17;4.13;;;14.70;99.90;;;;;;5092035;28;20212;-50
2022/07/09 04:47:29;;;;;;;4.37;3.60;;;14.80;99.90;;;;;;5091059;28;20208;-50
2022/07/09 04:49:58;;;;;;;4.20;3.80;;;14.90;99.90;;;;;;5085899;28;20262;-49
2022/07/09 04:52:28;;;;;;;4.80;4.27;;;15.10;99.90;;;;;;5092059;28;20645;-50
2022/07/09 04:54:56;;;;;;;4.33;3.97;;;15.20;99.90;;;;;;5091215;28;20204;-50
2022/07/09 04:57:24;;;;;;;4.70;3.87;;;15.30;99.90;;;;;;5091673;28;20253;-50
2022/07/09 04:59:52;;;;;;;4.10;3.70;;;15.50;99.90;;;;;;5091604;28;20204;-50
2022/07/09 05:02:20;;;;;;;6.60;4.07;;;15.50;99.90;;;;;;5091098;28;20228;-51
2022/07/09 05:04:48;;;;;;;4.50;4.10;;;15.70;99.90;;;;;;5085203;28;20209;-50
2022/07/09 05:07:18;;;;;;;5.60;4.00;;;15.80;99.90;;;;;;5086140;28;20554;-50
2022/07/09 05:09:46;;;;;;;5.32;3.92;;;16.10;99.90;;;;;;5112588;28;20211;-51
2022/07/09 05:12:14;;;;;;;4.03;3.58;;;16.50;99.90;;;;;;5111613;28;20276;-50
2022/07/09 05:14:42;;;;;;;4.65;3.72;;;17.20;99.90;;;;;;5112123;28;20265;-51
2022/07/09 05:17:10;;;;;;;3.92;3.22;;;17.90;99.90;;;;;;5107568;28;20208;-51
2022/07/09 05:19:38;;;;;;;6.10;3.92;;;18.10;99.90;;;;;;5099625;28;20210;-50
2022/07/09 05:22:06;;;;;;;5.95;3.60;;;17.90;99.90;;;;;;5093982;28;20231;-51
2022/07/09 05:24:35;;;;;;;5.93;3.72;;;17.60;99.90;;;;;;5099888;28;20207;-50
2022/07/09 05:27:04;;;;;;;6.00;3.42;;;17.70;99.90;;;;;;5111522;28;20204;-51
2022/07/09 05:29:32;;;;;;;6.03;3.35;;;18.00;99.90;;;;;;5111483;28;20217;-51
2022/07/09 05:32:00;;;;;;;5.38;3.40;;;18.00;99.90;;;;;;5111543;28;20231;-50
2022/07/09 05:34:28;;;;;;;6.22;3.88;;;17.80;99.90;;;;;;5082783;28;20267;-49
2022/07/09 05:36:57;;;;;;;4.88;3.35;;;17.50;99.90;;;;;;5111561;28;20256;-51
2022/07/09 05:39:25;;;;;;;4.05;3.75;;;17.40;99.90;;;;;;5104641;28;20297;-50
2022/07/09 05:41:55;;;;;;;3.92;3.42;;;17.40;99.90;;;;;;5089848;28;20274;-51
2022/07/09 05:44:23;;;;;;;4.57;3.97;;;17.30;99.90;;;;;;5088900;28;20212;-50
2022/07/09 05:46:52;;;;;;;6.95;3.90;;;17.10;99.90;;;;;;5083996;28;20201;-51
2022/07/09 05:49:20;;;;;;;4.95;3.80;;;17.10;99.90;;;;;;5087696;28;20204;-50
2022/07/09 05:51:48;;;;;;;6.50;4.07;;;17.10;99.90;;;;;;5090150;28;20200;-50
2022/07/09 05:54:16;;;;;;;6.47;4.18;;;17.00;99.90;;;;;;5090628;28;20221;-50
2022/07/09 05:56:44;;;;;;;9.32;4.30;;;17.10;99.90;;;;;;5071009;28;20235;-51
2022/07/09 05:59:14;;;;;;;6.82;4.57;;;17.10;99.90;;;;;;5073360;28;20220;-51
2022/07/09 06:01:42;;;;;;;5.97;4.70;;;17.00;99.90;;;;;;5072473;28;20229;-50
2022/07/09 06:04:10;;;;;;;6.72;4.10;;;17.00;99.90;;;;;;5072430;28;20200;-50
2022/07/09 06:06:39;;;;;;;5.95;4.35;;;17.00;99.90;;;;;;5072446;28;20205;-51
2022/07/09 06:09:07;;;;;;;9.20;4.90;;;17.00;99.90;;;;;;5072445;28;20215;-51
2022/07/09 06:11:36;;;;;;;6.03;4.68;;;17.00;99.90;;;;;;5074728;28;20196;-50
2022/07/09 06:14:04;;;;;;;7.93;4.63;;;17.00;99.90;;;;;;5071218;28;20224;-50
2022/07/09 06:16:33;;;;;;;6.50;5.00;;;17.00;99.90;;;;;;5072487;28;20261;-51
2022/07/09 06:19:01;;;;;;;6.90;4.80;;;17.00;99.90;;;;;;5083260;28;20629;-51
2022/07/09 06:21:29;;;;;;;6.82;4.70;;;17.10;99.90;;;;;;5081332;28;20228;-50
2022/07/09 06:23:57;;;;;;;7.95;5.35;;;17.00;99.90;;;;;;5076291;28;20285;-51
2022/07/09 06:26:26;;;;;;;7.63;4.90;;;16.90;99.90;;;;;;5082479;28;20209;-51
2022/07/09 06:28:54;;;;;;;7.88;4.93;;;17.00;99.90;;;;;;5086296;28;20240;-50
2022/07/09 06:31:22;;;;;;;6.72;5.05;;;17.00;99.90;;;;;;5075368;28;20271;-50
2022/07/09 06:33:53;;;;;;;7.80;5.05;;;17.00;99.90;;;;;;5078691;28;20220;-51
2022/07/09 06:36:27;;;;;;;6.15;4.00;;;17.00;99.90;;;;;;5086131;28;20826;-51
2022/07/09 06:41:41;;;;;;;8.68;4.30;;;17.10;99.90;;;;;;5089318;28;20255;-51
2022/07/09 06:44:09;;;;;;;6.57;5.38;;;17.20;99.90;;;;;;5080178;28;20232;-50
2022/07/09 06:46:38;;;;;;;7.10;4.75;;;17.30;99.90;;;;;;5082507;28;20317;-51
2022/07/09 06:49:07;;;;;;;7.32;5.00;;;17.40;99.90;;;;;;5089506;28;20204;-51
2022/07/09 06:51:36;;;;;;;7.05;5.05;;;17.50;99.90;;;;;;5089782;28;20209;-51
2022/07/09 06:54:28;;;;;;;9.15;5.32;;;17.60;99.90;;;;;;5075064;28;20225;-50
2022/07/09 06:57:09;;;;;;;5.63;5.00;;;17.80;99.90;;;;;;5088304;28;20203;-51
2022/07/09 06:59:37;;;;;;;8.05;4.93;;;18.00;99.90;;;;;;5075215;28;20209;-50
2022/07/09 07:02:05;;;;;;;7.50;5.53;;;18.10;99.90;;;;;;5072232;28;20709;-51
2022/07/09 07:04:36;;;;;;;6.60;5.15;;;18.40;99.90;;;;;;5086649;28;20213;-51
2022/07/09 07:07:05;;;;;;;8.20;5.38;;;18.50;99.90;;;;;;5084368;28;20274;-52
2022/07/09 07:09:33;;;;;;;9.23;5.20;;;18.70;99.90;;;;;;5080543;28;20211;-50
2022/07/09 07:12:01;;;;;;;6.53;5.57;;;18.80;99.90;;;;;;5085345;28;20232;-51
2022/07/09 07:14:29;;;;;;;7.65;5.68;;;18.80;99.90;;;;;;5087040;28;20243;-51
2022/07/09 07:16:57;;;;;;;6.63;5.95;;;18.70;99.90;;;;;;5087989;28;20212;-51
2022/07/09 07:19:25;;;;;;;8.27;6.72;;;19.40;99.90;;;;;;5088020;28;20772;-51
2022/07/09 07:21:55;;;;;;;7.65;6.85;;;20.60;99.90;;;;;;5085377;28;20237;-51
2022/07/09 07:24:23;;;;;;;8.18;6.78;;;21.50;99.90;;;;;;5069721;28;20212;-51
2022/07/09 07:26:51;;;;;;;10.88;7.90;;;22.20;99.90;;;;;;5073084;28;20635;-51
2022/07/09 07:29:20;;;;;;;9.32;7.28;;;22.80;99.90;;;;;;5089400;28;20609;-51
2022/07/09 07:31:49;;;;;;;8.48;6.72;;;22.90;99.90;;;;;;5082642;28;20683;-52
2022/07/09 07:34:18;;;;;;;10.80;8.00;;;23.30;99.90;;;;;;5085756;28;20586;-51
2022/07/09 07:36:50;;;;;;;8.75;6.93;;;23.70;99.90;;;;;;5087694;28;20289;-52
2022/07/09 07:39:21;;;;;;;10.35;7.57;;;24.00;99.90;;;;;;5087285;28;20196;-51
2022/07/09 07:41:50;;;;;;;9.18;7.25;;;24.40;99.90;;;;;;5076474;28;20231;-51
2022/07/09 07:44:18;;;;;;;8.82;6.38;;;24.70;99.90;;;;;;5083247;28;20208;-51
2022/07/09 07:46:46;;;;;;;8.02;6.88;;;24.80;99.90;;;;;;5070691;28;20204;-51
2022/07/09 07:49:14;;;;;;;8.57;7.30;;;25.00;99.90;;;;;;5084079;28;20233;-51
2022/07/09 07:51:43;;;;;;;9.68;6.28;;;24.90;99.90;;;;;;5087703;28;20204;-51
2022/07/09 07:54:12;;;;;;;7.70;5.63;;;25.10;99.90;;;;;;5086215;28;20777;-51
2022/07/09 07:56:42;;;;;;;7.55;5.57;;;25.20;99.90;;;;;;5089650;28;20203;-51
2022/07/09 07:59:10;;;;;;;6.18;5.35;;;24.70;99.90;;;;;;5090428;28;20875;-51
2022/07/09 08:01:38;;;;;;;6.80;5.68;;;24.10;99.90;;;;;;5089901;28;20208;-51
2022/07/09 08:04:06;;;;;;;9.18;5.65;;;23.60;99.90;;;;;;5091616;28;20798;-51
2022/07/09 08:06:35;;;;;;;7.40;4.95;;;23.30;99.90;;;;;;5089592;28;20890;-51
2022/07/09 08:09:03;;;;;;;5.93;4.00;;;22.90;99.90;;;;;;5088917;28;20200;-51
2022/07/09 08:11:32;;;;;;;5.05;4.00;;;22.80;99.90;;;;;;5093655;28;20223;-51
2022/07/09 08:14:01;;;;;;;5.25;4.50;;;22.60;99.90;;;;;;5087783;28;20232;-51
2022/07/09 08:16:29;;;;;;;8.48;4.65;;;22.70;99.90;;;;;;5089500;28;20216;-51
2022/07/09 08:18:57;;;;;;;5.93;4.55;;;22.80;99.90;;;;;;5095137;28;20212;-51
2022/07/09 08:21:25;;;;;;;5.30;4.18;;;23.00;99.90;;;;;;5090520;28;20208;-50
2022/07/09 08:23:55;;;;;;;5.47;4.97;;;22.90;99.90;;;;;;5093383;28;20281;-51
2022/07/09 08:26:25;;;;;;;7.43;5.25;;;22.90;99.90;;;;;;5091086;28;20223;-51
2022/07/09 08:28:53;;;;;;;5.57;4.38;;;22.80;99.90;;;;;;5096142;28;20212;-51
2022/07/09 08:31:23;;;;;;;5.78;5.13;;;23.00;99.90;;;;;;5094583;28;20208;-51
2022/07/09 08:33:52;;;;;;;6.43;4.68;;;23.30;99.90;;;;;;5087606;28;20674;-50
2022/07/09 08:36:20;;;;;;;6.22;4.70;;;23.40;99.90;;;;;;5090284;28;20559;-50
2022/07/09 08:38:49;;;;;;;5.25;4.80;;;23.70;99.90;;;;;;5088985;28;20208;-51
2022/07/09 08:41:20;;;;;;;6.13;4.97;;;23.60;99.90;;;;;;5090577;28;20653;-51
2022/07/09 08:43:54;;;;;;;5.00;3.90;;;23.90;99.90;;;;;;5089442;28;20235;-51
2022/07/09 08:46:24;;;;;;;7.25;4.38;;;24.20;99.90;;;;;;5090045;28;20261;-51
2022/07/09 08:48:55;;;;;;;7.15;4.10;;;24.20;99.90;;;;;;5090745;28;20211;-51
2022/07/09 08:51:24;;;;;;;4.15;2.85;;;24.00;99.90;;;;;;5091370;28;20829;-51
2022/07/09 08:53:55;;;;;;;3.72;3.33;;;24.00;99.90;;;;;;5085348;28;20220;-50
2022/07/09 08:56:23;;;;;;;3.70;3.08;;;24.20;99.90;;;;;;5086270;28;20726;-50
2022/07/09 08:58:51;;;;;;;3.10;2.20;;;24.20;99.90;;;;;;5088845;28;20208;-49
2022/07/09 09:01:19;;;;;;;4.75;3.03;;;24.10;99.90;;;;;;5089268;28;20212;-51
2022/07/09 09:03:49;;;;;;;6.05;2.35;;;24.30;99.90;;;;;;5087511;28;20224;-51
2022/07/09 09:06:17;;;;;;;2.60;2.38;;;24.50;99.90;;;;;;5088155;28;20768;-50
2022/07/09 09:08:46;;;;;;;2.90;2.15;;;24.30;99.90;;;;;;5087503;28;20287;-51
2022/07/09 09:11:16;;;;;;;2.65;1.83;;;24.10;99.90;;;;;;5089970;28;20732;-52
2022/07/09 09:13:45;;;;;;;3.22;2.10;;;24.20;99.90;;;;;;5090824;28;20681;-51
2022/07/09 09:16:16;;;;;;;3.25;2.20;;;24.60;99.90;;;;;;5090264;28;20637;-51
2022/07/09 09:18:45;;;;;;;3.25;2.35;;;24.60;99.90;;;;;;5089662;28;20216;-51
2022/07/09 09:21:17;;;;;;;2.30;2.10;;;24.40;99.90;;;;;;5088407;28;20306;-51
2022/07/09 09:23:47;;;;;;;2.40;2.20;;;24.30;99.90;;;;;;5090473;28;20224;-51
2022/07/09 09:26:16;;;;;;;2.78;2.20;;;24.30;99.90;;;;;;5090549;28;20273;-52
2022/07/09 09:28:49;;;;;;;3.22;1.90;;;24.20;99.90;;;;;;5097734;28;20245;-51
2022/07/09 09:31:22;;;;;;;2.42;2.17;;;24.50;99.90;;;;;;5087832;28;20208;-51
2022/07/09 09:33:51;;;;;;;3.92;2.30;;;24.70;99.90;;;;;;5094068;28;20224;-51
2022/07/09 09:36:32;;;;;;;3.50;2.13;;;24.60;99.90;;;;;;5095865;28;20672;-50
2022/07/09 09:39:14;;;;;;;3.55;1.88;;;24.80;99.90;;;;;;5086971;28;20246;-50
2022/07/09 09:41:43;;;;;;;1.98;1.75;;;24.60;99.90;;;;;;5086176;28;20257;-50
2022/07/09 09:44:14;;;;;;;2.67;1.63;;;24.50;99.90;;;;;;5089951;28;20227;-51
2022/07/09 09:46:43;;;;;;;1.60;1.50;;;24.30;99.90;;;;;;5087173;28;20333;-51
2022/07/09 09:49:14;;;;;;;1.50;1.40;;;24.40;99.90;;;;;;5089722;28;20763;-50
2022/07/09 09:51:57;;;;;;;2.20;2.00;;;24.40;99.90;;;;;;5089531;28;20223;-51
2022/07/09 09:54:26;;;;;;;2.45;2.10;;;24.30;99.90;;;;;;5089571;28;20200;-50
2022/07/09 09:56:55;;;;;;;3.63;1.95;;;24.60;99.90;;;;;;5089125;28;20213;-50
2022/07/09 09:59:24;;;;;;;2.58;2.10;;;24.90;99.90;;;;;;5089557;28;20200;-49
2022/07/09 10:01:52;;;;;;;2.15;1.90;;;25.20;99.90;;;;;;5084720;28;20209;-49
2022/07/09 10:04:21;;;;;;;2.58;2.17;;;25.20;99.90;;;;;;5089148;28;20221;-51
2022/07/09 10:06:49;;;;;;;2.38;2.10;;;25.20;99.90;;;;;;5089471;28;20287;-51
2022/07/09 10:09:19;;;;;;;3.70;2.30;;;25.30;99.90;;;;;;5089667;28;20283;-51
2022/07/09 10:11:48;;;;;;;3.03;2.40;;;25.20;99.90;;;;;;5090155;28;20494;-51
2022/07/09 10:14:18;;;;;;;4.00;2.53;;;25.30;99.90;;;;;;5088733;28;20207;-51
2022/07/09 10:16:46;;;;;;;2.47;2.28;;;25.40;99.90;;;;;;5086345;28;20200;-50
2022/07/09 10:19:25;;;;;;;3.40;1.80;;;25.30;99.90;;;;;;5089703;28;20220;-51
2022/07/09 10:21:54;;;;;;;3.08;2.00;;;25.60;99.90;;;;;;5088767;28;20208;-50
2022/07/09 10:24:27;;;;;;;6.00;2.22;;;25.60;99.90;;;;;;5088899;28;20224;-50
2022/07/09 10:27:05;;;;;;;2.90;2.50;;;25.30;99.90;;;;;;5088762;28;20204;-50
2022/07/09 10:29:34;;;;;;;2.45;2.25;;;25.30;99.90;;;;;;5084108;28;20208;-50
2022/07/09 10:32:02;;;;;;;2.15;1.88;;;25.30;99.90;;;;;;5088754;28;20200;-50
2022/07/09 10:34:56;;;;;;;4.10;2.00;;;25.30;99.90;;;;;;5085963;28;20250;-50
2022/07/09 10:37:32;;;;;;;2.10;1.90;;;25.30;99.90;;;;;;5089017;28;20692;-50
2022/07/09 10:40:12;;;;;;;2.35;1.90;;;25.10;99.90;;;;;;5088730;28;20247;-50
2022/07/09 10:42:41;;;;;;;1.95;1.75;;;25.20;99.90;;;;;;5088431;28;20224;-51
2022/07/09 10:45:23;;;;;;;4.90;2.15;;;25.70;99.90;;;;;;5083982;28;20216;-50
2022/07/09 10:47:53;;;;;;;1.63;1.52;;;25.90;99.90;;;;;;5087244;28;20216;-51
2022/07/09 10:50:22;;;;;;;2.28;2.08;;;25.70;99.90;;;;;;5086926;28;20258;-51
2022/07/09 10:52:51;;;;;;;3.42;1.80;;;25.30;99.90;;;;;;5086412;28;20293;-51
2022/07/09 10:55:22;;;;;;;2.55;1.60;;;25.00;99.90;;;;;;5087291;28;20204;-51
2022/07/09 10:57:50;;;;;;;2.20;1.60;;;24.70;99.90;;;;;;5087019;28;20263;-51
2022/07/09 11:00:19;;;;;;;2.60;1.63;;;24.60;99.90;;;;;;5085971;28;20212;-50
2022/07/09 11:02:55;;;;;;;1.45;1.35;;;24.70;99.90;;;;;;5088444;28;20224;-50
2022/07/09 11:05:24;;;;;;;2.00;1.70;;;24.90;99.90;;;;;;5084320;28;20558;-51
2022/07/09 11:08:03;;;;;;;1.80;1.70;;;24.90;99.90;;;;;;5087504;28;20245;-50
2022/07/09 11:10:35;;;;;;;1.50;1.40;;;24.90;99.90;;;;;;5088108;28;20573;-51
2022/07/09 11:13:06;;;;;;;2.97;1.63;;;24.60;99.90;;;;;;5088210;28;20297;-51
2022/07/09 11:15:35;;;;;;;1.95;1.80;;;24.40;99.90;;;;;;5084807;28;20612;-51
2022/07/09 11:18:05;;;;;;;5.00;1.80;;;24.30;99.90;;;;;;5087145;28;20236;-52
2022/07/09 11:20:38;;;;;;;2.50;1.80;;;24.20;99.90;;;;;;5087005;28;20466;-50
2022/07/09 11:23:07;;;;;;;1.60;1.50;;;24.30;99.90;;;;;;5086498;28;20258;-50
2022/07/09 11:25:37;;;;;;;2.88;1.90;;;24.00;99.90;;;;;;5083223;28;20281;-50
2022/07/09 11:28:05;;;;;;;1.85;1.70;;;24.00;99.90;;;;;;5087057;28;20752;-50
2022/07/09 11:30:40;;;;;;;2.05;1.85;;;24.00;99.90;;;;;;5084303;28;20204;-50
2022/07/09 11:33:12;;;;;;;1.67;1.58;;;24.10;99.90;;;;;;5076748;28;20289;-51
2022/07/09 11:35:44;;;;;;;1.95;1.75;;;24.00;99.90;;;;;;5080843;28;20692;-51
2022/07/09 11:38:13;;;;;;;2.17;1.80;;;24.00;99.90;;;;;;5077900;28;20204;-50
2022/07/09 11:40:43;;;;;;;1.60;1.50;;;24.00;99.90;;;;;;5075427;28;20204;-50
2022/07/09 11:43:15;;;;;;;2.78;1.70;;;24.00;99.90;;;;;;5079803;28;20286;-50
2022/07/09 11:45:53;;;;;;;2.70;1.70;;;23.80;99.90;;;;;;5079749;28;20243;-50
2022/07/09 11:48:21;;;;;;;4.28;1.70;;;23.70;99.90;;;;;;5078265;28;20270;-50
2022/07/09 11:50:49;;;;;;;1.95;1.75;;;23.60;99.90;;;;;;5086761;28;20793;-50
2022/07/09 11:53:21;;;;;;;1.83;1.70;;;23.60;99.90;;;;;;5087829;28;20324;-50
2022/07/09 11:56:01;;;;;;;2.90;1.70;;;23.50;99.90;;;;;;5086247;28;20200;-50
2022/07/09 11:58:29;;;;;;;2.72;1.73;;;23.40;99.90;;;;;;5085167;28;20200;-50
2022/07/09 12:00:59;;;;;;;1.92;1.52;;;23.30;99.90;;;;;;5087883;28;21022;-50
2022/07/09 12:03:29;;;;;;;2.30;1.45;;;23.20;99.90;;;;;;5085862;28;20278;-49
2022/07/09 12:05:58;;;;;;;2.75;1.85;;;23.30;99.90;;;;;;5086582;28;20311;-50
2022/07/09 12:08:30;;;;;;;2.08;1.75;;;23.30;99.90;;;;;;5087653;28;20283;-51
2022/07/09 12:11:00;;;;;;;1.80;1.70;;;23.20;99.90;;;;;;5087942;28;20238;-51
2022/07/09 12:13:29;;;;;;;2.45;1.75;;;23.40;99.90;;;;;;5084050;28;20228;-50
2022/07/09 12:15:57;;;;;;;1.60;1.50;;;23.50;99.90;;;;;;5087647;28;20211;-50
2022/07/09 12:18:25;;;;;;;2.25;1.67;;;23.60;99.90;;;;;;5086622;28;20755;-50
2022/07/09 12:20:54;;;;;;;1.65;1.55;;;23.90;99.90;;;;;;5086451;28;20243;-50
2022/07/09 12:23:22;;;;;;;3.17;1.80;;;24.00;99.90;;;;;;5087476;28;20803;-52
2022/07/09 12:25:50;;;;;;;4.90;1.90;;;24.20;99.90;;;;;;5084541;28;20223;-50
2022/07/09 12:28:19;;;;;;;4.43;2.00;;;24.30;99.90;;;;;;5088150;28;20771;-50
2022/07/09 12:30:47;;;;;;;3.42;1.80;;;24.50;99.90;;;;;;5087279;28;20265;-50
2022/07/09 12:33:15;;;;;;;2.42;1.70;;;24.60;99.90;;;;;;5086268;28;20220;-50
2022/07/09 12:35:43;;;;;;;2.35;1.48;;;24.60;99.90;;;;;;5085314;28;20192;-49
2022/07/09 12:38:11;;;;;;;4.07;1.73;;;24.50;99.90;;;;;;5087139;28;20270;-50
2022/07/09 12:40:39;;;;;;;1.60;1.50;;;24.40;99.90;;;;;;5087576;28;20208;-50
2022/07/09 12:43:08;;;;;;;2.05;1.58;;;24.40;99.90;;;;;;5087968;28;20228;-50
2022/07/09 12:45:37;;;;;;;2.22;1.67;;;24.40;99.90;;;;;;5091224;28;20204;-48
2022/07/09 12:48:05;;;;;;;10.70;2.25;;;24.40;99.90;;;;;;5090866;28;20204;-49
2022/07/09 12:50:33;;;;;;;2.40;1.48;;;24.50;99.90;;;;;;5098546;28;20211;-51
2022/07/09 12:53:01;;;;;;;2.95;1.45;;;24.50;99.90;;;;;;5097081;28;20224;-50
2022/07/09 12:55:29;;;;;;;1.63;1.52;;;24.50;99.90;;;;;;5096638;28;20204;-50
2022/07/09 12:58:17;;;;;;;2.85;1.67;;;24.50;99.90;;;;;;5092781;28;20260;-50